KRHI/RHI METAR and TAF weather

Enter ICAO airport designator
Station Type Date Time Source
KRHI METAR 2022/05/24 12:53 UTC NOAA

KRHI 241253Z AUTO 00000KT 10SM CLR 08/03 A3031 RMK AO2 SLP271 T00830033


Station Type Date Time Source
KRHI Decoded METAR 2022/05/24 12:53 UTC NOAA

RHINELANDER-ONEIDA CO AIRPORT , WI, United States (KRHI) 45-38N 89-29W 485M
May 24, 2022 - 08:53 AM EDT / 2022.05.24 1253 UTC
Wind: Calm:0
Visibility: 10 mile(s):0
Sky conditions: clear
Temperature: 46.9 F (8.3 C)
Dew Point: 37.9 F (3.3 C)
Relative Humidity: 70%
Pressure (altimeter): 30.31 in. Hg (1026 hPa)
ob: KRHI 241253Z AUTO 00000KT 10SM CLR 08/03 A3031 RMK AO2 SLP271 T00830033
cycle: 13

Station Type Date Time Source
KRHI TAF 2022/05/24 12:48 UTC NOAA

TAF KRHI 241145Z 2412/2512 VRB03KT P6SM BKN200
FM241500 14005KT P6SM BKN150
FM250600 11003KT P6SM BKN120
FM251000 09004KT P6SM OVC080

Example: see airport list